Time;durP1;ratioP1;P1;durP2;ratioP2;P2;SDS_P1;SDS_P2;PMS_P1;PMS_P2;Temp;Humidity;BMP_temperature;BMP_pressure;BME280_temperature;BME280_humidity;BME280_pressure;Samples;Min_cycle;Max_cycle;Signal;HPM_P1;HPM_P2
2022/11/05 00:09:33;;;;;;;10.52;3.70;;;6.50;99.90;;;;;;4966436;28;20375;-76
2022/11/05 00:17:33;;;;;;;18.60;5.07;;;6.60;99.90;;;;;;4968694;28;19922;-75
2022/11/05 00:19:59;;;;;;;7.63;4.05;;;6.60;99.90;;;;;;4956499;28;20089;-74
2022/11/05 00:25:12;;;;;;;17.65;4.72;;;6.60;99.90;;;;;;4965407;28;20141;-74
2022/11/05 00:27:39;;;;;;;9.48;3.92;;;6.60;99.90;;;;;;4953161;28;20043;-77
2022/11/05 00:30:06;;;;;;;14.13;2.95;;;6.70;99.90;;;;;;4953463;28;20039;-78
2022/11/05 00:32:32;;;;;;;14.32;4.35;;;6.70;99.90;;;;;;4955775;28;20051;-76
2022/11/05 00:34:58;;;;;;;12.43;2.90;;;6.60;99.90;;;;;;4968452;28;20042;-76
2022/11/05 00:37:26;;;;;;;12.85;3.47;;;6.50;99.90;;;;;;4956017;28;20462;-76
2022/11/05 00:39:52;;;;;;;10.57;4.53;;;6.50;99.90;;;;;;4958346;28;20051;-77
2022/11/05 00:45:03;;;;;;;6.93;3.13;;;6.60;99.90;;;;;;4970015;28;20053;-77
2022/11/05 00:50:15;;;;;;;8.38;2.90;;;6.50;99.90;;;;;;4950675;28;20043;-77
2022/11/05 00:52:56;;;;;;;9.75;2.90;;;6.40;99.90;;;;;;4951800;28;20398;-75
2022/11/05 00:55:23;;;;;;;11.50;3.03;;;6.40;99.90;;;;;;4950164;28;20099;-76
2022/11/05 00:57:49;;;;;;;5.68;2.55;;;6.40;99.90;;;;;;4948896;28;20043;-76
2022/11/05 01:00:15;;;;;;;11.52;2.83;;;6.30;99.90;;;;;;4950802;29;20118;-75
2022/11/05 01:02:41;;;;;;;9.98;2.80;;;6.40;99.90;;;;;;4954560;28;20374;-75
2022/11/05 01:05:07;;;;;;;10.10;3.25;;;6.30;99.90;;;;;;4962201;28;20055;-77
2022/11/05 01:07:33;;;;;;;7.70;2.60;;;6.40;99.90;;;;;;4967894;28;20055;-76
2022/11/05 01:09:59;;;;;;;8.10;1.88;;;6.30;99.90;;;;;;4967224;28;20050;-77
2022/11/05 01:12:25;;;;;;;11.65;2.72;;;6.40;99.90;;;;;;4959640;28;20063;-77
2022/11/05 01:14:50;;;;;;;11.60;2.90;;;6.40;99.90;;;;;;4961108;28;20043;-77
2022/11/05 01:17:16;;;;;;;6.20;2.35;;;6.40;99.90;;;;;;4978059;28;20036;-76
2022/11/05 01:19:42;;;;;;;5.63;1.98;;;6.40;99.90;;;;;;4975049;28;20096;-77
2022/11/05 01:22:07;;;;;;;12.43;2.83;;;6.20;99.90;;;;;;4948559;29;20070;-76
2022/11/05 01:24:33;;;;;;;9.38;2.90;;;6.20;99.90;;;;;;4960379;28;20054;-75
2022/11/05 01:26:59;;;;;;;4.22;1.75;;;6.20;99.90;;;;;;4953920;28;20742;-77
2022/11/05 01:29:24;;;;;;;3.88;2.10;;;6.20;99.90;;;;;;4961669;28;21839;-77
2022/11/05 01:31:50;;;;;;;3.42;1.95;;;6.30;99.90;;;;;;4950264;28;20054;-76
2022/11/05 01:34:16;;;;;;;7.32;1.95;;;6.20;99.90;;;;;;4956971;28;20050;-77
2022/11/05 01:36:41;;;;;;;5.70;2.53;;;6.20;99.90;;;;;;4956657;28;20371;-76
2022/11/05 01:39:07;;;;;;;11.68;3.30;;;6.20;99.90;;;;;;4953671;28;20110;-77
2022/11/05 01:41:33;;;;;;;6.10;2.40;;;6.20;99.90;;;;;;4966826;28;20043;-77
2022/11/05 01:43:59;;;;;;;8.10;2.13;;;6.20;99.90;;;;;;4952766;28;20042;-75
2022/11/05 01:46:40;;;;;;;8.45;2.88;;;6.20;99.90;;;;;;4976808;28;20046;-74
2022/11/05 01:49:16;;;;;;;5.68;1.70;;;6.20;99.90;;;;;;4952685;28;20126;-73
2022/11/05 01:51:43;;;;;;;9.18;2.03;;;6.20;99.90;;;;;;4966586;28;20509;-77
2022/11/05 01:54:15;;;;;;;7.80;2.60;;;6.00;99.90;;;;;;4950584;28;20418;-77
2022/11/05 01:56:54;;;;;;;8.07;2.75;;;6.10;99.90;;;;;;4951024;28;20086;-76
2022/11/05 01:59:30;;;;;;;8.40;1.52;;;6.10;99.90;;;;;;4945544;28;20410;-76
2022/11/05 02:01:56;;;;;;;6.32;1.95;;;6.20;99.90;;;;;;4958564;28;20047;-77
2022/11/05 02:04:31;;;;;;;7.38;1.95;;;5.90;99.90;;;;;;4954516;28;20089;-76
2022/11/05 02:06:58;;;;;;;5.07;1.98;;;6.00;99.90;;;;;;4950747;28;20190;-76
2022/11/05 02:09:29;;;;;;;5.35;2.50;;;6.00;99.90;;;;;;4950935;28;20039;-76
2022/11/05 02:14:24;;;;;;;12.63;3.63;;;6.00;99.90;;;;;;4964224;28;20047;-75
2022/11/05 02:17:27;;;;;;;6.60;1.35;;;6.00;99.90;;;;;;4966396;28;20043;-76
2022/11/05 02:20:12;;;;;;;5.10;1.52;;;6.00;99.90;;;;;;4987295;28;20051;-78
2022/11/05 02:23:03;;;;;;;2.83;1.23;;;6.10;99.90;;;;;;4966127;28;20493;-76
2022/11/05 02:25:38;;;;;;;7.80;1.73;;;6.10;99.90;;;;;;4978084;28;20086;-76
2022/11/05 02:28:25;;;;;;;5.20;1.88;;;6.00;99.90;;;;;;4980008;28;20063;-75
2022/11/05 02:31:01;;;;;;;3.65;2.63;;;6.10;99.90;;;;;;4965924;28;20054;-77
2022/11/05 02:33:32;;;;;;;4.00;1.58;;;6.20;99.90;;;;;;4947227;28;20061;-78
2022/11/05 02:36:19;;;;;;;5.38;1.80;;;6.10;99.90;;;;;;4955279;28;20193;-77
2022/11/05 02:38:59;;;;;;;13.65;3.05;;;6.00;99.90;;;;;;4969786;28;20046;-75
2022/11/05 02:41:28;;;;;;;9.57;1.88;;;6.10;99.90;;;;;;4953998;28;20674;-76
2022/11/05 02:44:05;;;;;;;5.80;1.35;;;6.10;99.90;;;;;;4972650;28;20074;-76
2022/11/05 02:46:47;;;;;;;13.18;2.45;;;6.20;99.90;;;;;;4939160;28;20058;-76
2022/11/05 02:49:50;;;;;;;3.25;1.83;;;6.10;99.90;;;;;;4972852;28;20042;-77
2022/11/05 02:52:31;;;;;;;5.70;1.58;;;6.30;99.90;;;;;;4961920;28;20039;-75
2022/11/05 02:55:16;;;;;;;6.38;1.65;;;6.20;99.90;;;;;;4954408;28;20053;-77
2022/11/05 02:57:46;;;;;;;5.30;1.65;;;6.30;99.90;;;;;;4971315;28;20616;-78
2022/11/05 03:00:31;;;;;;;;;;;6.30;99.90;;;;;;4972220;28;20042;-78
2022/11/05 03:02:56;;;;;;;2.47;1.75;;;6.30;99.90;;;;;;4972394;28;19977;-76
2022/11/05 03:05:31;;;;;;;7.55;2.00;;;6.30;99.90;;;;;;4919499;29;20047;-77
2022/11/05 03:08:05;;;;;;;3.30;1.30;;;6.30;99.90;;;;;;4965101;28;20054;-76
2022/11/05 03:10:40;;;;;;;3.72;1.85;;;6.20;99.90;;;;;;4986186;28;20047;-77
2022/11/05 03:13:16;;;;;;;6.35;1.92;;;6.20;99.90;;;;;;4986056;28;20493;-75
2022/11/05 03:15:41;;;;;;;3.88;1.63;;;6.10;99.90;;;;;;4971819;28;20046;-76
2022/11/05 03:18:13;;;;;;;7.72;1.98;;;6.20;99.90;;;;;;4978061;28;20063;-77
2022/11/05 03:21:07;;;;;;;3.58;1.48;;;6.20;99.90;;;;;;4966644;28;20050;-76
2022/11/05 03:24:01;;;;;;;3.30;1.63;;;6.10;99.90;;;;;;4955825;28;20104;-76
2022/11/05 03:26:37;;;;;;;6.32;2.13;;;6.20;99.90;;;;;;4969366;28;20441;-76
2022/11/05 03:29:19;;;;;;;8.65;2.38;;;6.00;99.90;;;;;;4971886;28;20135;-76
2022/11/05 03:31:48;;;;;;;2.80;1.45;;;6.10;99.90;;;;;;4967013;28;20567;-76
2022/11/05 03:34:18;;;;;;;4.43;1.23;;;6.00;99.90;;;;;;4970988;28;20406;-77
2022/11/05 03:36:49;;;;;;;4.35;1.65;;;6.10;99.90;;;;;;4949305;28;20445;-75
2022/11/05 03:39:20;;;;;;;3.65;1.65;;;6.10;99.90;;;;;;4925620;28;20062;-77
2022/11/05 03:41:50;;;;;;;5.35;1.42;;;6.10;99.90;;;;;;4950317;28;20039;-76
2022/11/05 03:44:23;;;;;;;5.03;1.48;;;6.10;99.90;;;;;;4967064;28;20406;-76
2022/11/05 03:46:52;;;;;;;4.25;1.60;;;6.20;99.90;;;;;;4970030;28;20502;-76
2022/11/05 03:49:26;;;;;;;13.32;2.72;;;6.20;99.90;;;;;;4971274;28;20042;-75
2022/11/05 03:52:02;;;;;;;5.40;2.47;;;6.00;99.90;;;;;;4970283;28;20125;-75
2022/11/05 03:54:28;;;;;;;9.40;1.63;;;6.00;99.90;;;;;;4985217;28;20058;-76
2022/11/05 03:57:03;;;;;;;5.88;2.35;;;6.00;99.90;;;;;;4969663;28;20122;-75
2022/11/05 03:59:31;;;;;;;4.15;1.70;;;6.00;99.90;;;;;;4935528;29;20051;-77
2022/11/05 04:01:57;;;;;;;6.13;1.27;;;6.20;99.90;;;;;;4965840;28;20117;-76
2022/11/05 04:04:23;;;;;;;6.22;2.58;;;6.20;99.90;;;;;;4952821;28;20469;-76
2022/11/05 04:15:01;;;;;;;1.95;1.30;;;6.20;99.90;;;;;;4955707;28;20474;-76
2022/11/05 04:17:27;;;;;;;5.75;1.65;;;6.30;99.90;;;;;;4962455;28;20114;-75
2022/11/05 04:25:21;;;;;;;6.95;2.22;;;6.20;99.90;;;;;;4971807;28;20101;-76
2022/11/05 04:27:47;;;;;;;13.05;3.30;;;6.30;99.90;;;;;;4953751;28;20598;-76
2022/11/05 04:30:17;;;;;;;11.00;2.97;;;6.30;99.90;;;;;;4951259;28;20050;-76
2022/11/05 04:33:03;;;;;;;5.78;2.65;;;6.30;99.90;;;;;;4984367;28;20053;-76
2022/11/05 04:35:36;;;;;;;11.80;3.25;;;6.30;99.90;;;;;;4983833;28;20093;-76
2022/11/05 04:38:04;;;;;;;6.90;3.05;;;6.30;99.90;;;;;;4935316;28;20654;-75
2022/11/05 04:40:30;;;;;;;8.80;4.07;;;6.10;99.90;;;;;;4966509;28;20046;-76
2022/11/05 04:42:56;;;;;;;6.63;2.65;;;6.20;99.90;;;;;;4969646;28;20418;-76
2022/11/05 04:45:27;;;;;;;9.90;4.38;;;6.20;99.90;;;;;;4982124;28;20122;-76
2022/11/05 04:47:52;;;;;;;7.30;2.85;;;6.20;99.90;;;;;;4983746;28;20082;-75
2022/11/05 04:50:18;;;;;;;8.43;4.13;;;6.10;99.90;;;;;;4953995;28;20528;-75
2022/11/05 04:52:44;;;;;;;4.85;3.05;;;6.30;99.90;;;;;;4953486;28;20129;-76
2022/11/05 04:55:10;;;;;;;9.13;3.83;;;6.20;99.90;;;;;;4982028;28;20369;-75
2022/11/05 04:57:36;;;;;;;8.70;4.57;;;6.20;99.90;;;;;;4969092;28;20046;-75
2022/11/05 05:00:03;;;;;;;6.65;3.90;;;6.10;99.90;;;;;;4969300;28;20502;-75
2022/11/05 05:02:29;;;;;;;22.50;4.63;;;6.10;99.90;;;;;;4982591;28;20054;-75
2022/11/05 05:04:54;;;;;;;11.50;4.80;;;6.10;99.90;;;;;;4951176;28;20042;-76
2022/11/05 05:07:20;;;;;;;7.88;4.07;;;6.00;99.90;;;;;;4967384;28;20039;-76
2022/11/05 05:09:46;;;;;;;9.32;4.95;;;6.20;99.90;;;;;;4968836;28;20082;-76
2022/11/05 05:12:11;;;;;;;27.15;8.35;;;6.20;99.90;;;;;;4967632;28;21079;-74
2022/11/05 05:14:37;;;;;;;13.57;6.38;;;6.00;99.90;;;;;;4968783;28;20061;-74
2022/11/05 05:17:03;;;;;;;11.32;6.47;;;6.00;99.90;;;;;;4964486;28;20109;-76
2022/11/05 05:19:29;;;;;;;10.13;6.47;;;6.10;99.90;;;;;;4968565;28;20046;-76
2022/11/05 05:21:54;;;;;;;18.50;6.60;;;6.00;99.90;;;;;;4969026;28;20062;-75
2022/11/05 05:24:20;;;;;;;8.80;5.47;;;6.10;99.90;;;;;;4951322;28;20042;-76
2022/11/05 05:26:47;;;;;;;14.85;6.53;;;6.10;99.90;;;;;;4960090;28;20500;-77
2022/11/05 05:29:14;;;;;;;15.18;6.68;;;6.10;99.90;;;;;;4951690;28;20042;-74
2022/11/05 05:31:40;;;;;;;17.65;6.63;;;6.40;99.90;;;;;;4967253;28;20047;-76
2022/11/05 05:34:07;;;;;;;14.63;4.55;;;6.30;99.90;;;;;;4968325;28;20101;-74
2022/11/05 05:36:33;;;;;;;10.43;7.38;;;6.40;99.90;;;;;;4980850;28;20078;-76
2022/11/05 05:38:59;;;;;;;14.23;5.68;;;6.50;99.90;;;;;;4964442;28;20035;-76
2022/11/05 05:41:24;;;;;;;19.77;5.60;;;6.40;99.90;;;;;;4969440;28;20122;-76
2022/11/05 05:43:50;;;;;;;22.30;5.30;;;6.50;99.90;;;;;;4968208;28;20043;-76
2022/11/05 05:46:17;;;;;;;10.57;4.35;;;6.50;99.90;;;;;;4967637;28;20042;-77
2022/11/05 05:48:48;;;;;;;8.15;4.25;;;6.50;99.90;;;;;;4964474;28;20034;-75
2022/11/05 05:51:13;;;;;;;19.27;4.90;;;6.40;99.90;;;;;;4985774;28;20050;-74
2022/11/05 05:53:39;;;;;;;12.20;5.15;;;6.50;99.90;;;;;;4955155;28;20508;-77
2022/11/05 05:56:05;;;;;;;12.80;5.38;;;6.50;99.90;;;;;;4971221;28;20065;-78
2022/11/05 05:58:36;;;;;;;7.85;4.35;;;6.50;99.90;;;;;;4952660;28;20046;-74
2022/11/05 06:01:07;;;;;;;6.20;4.22;;;6.50;99.90;;;;;;4953851;28;20050;-76
2022/11/05 06:03:33;;;;;;;16.80;5.55;;;6.40;99.90;;;;;;4977421;28;20046;-75
2022/11/05 06:06:03;;;;;;;8.88;4.05;;;6.30;99.90;;;;;;4971837;28;20050;-75
2022/11/05 06:08:30;;;;;;;8.68;4.20;;;6.30;99.90;;;;;;4983773;28;20039;-76
2022/11/05 06:10:56;;;;;;;5.78;4.55;;;6.20;99.90;;;;;;4969990;28;20055;-75
2022/11/05 06:13:22;;;;;;;15.40;6.35;;;6.10;99.90;;;;;;4970506;28;20101;-75
2022/11/05 06:15:48;;;;;;;7.40;4.35;;;6.20;99.90;;;;;;4975248;28;20050;-75
2022/11/05 06:18:13;;;;;;;14.75;6.32;;;6.10;99.90;;;;;;4942222;28;20617;-76
2022/11/05 06:20:39;;;;;;;10.57;4.63;;;6.10;99.90;;;;;;4972335;28;20042;-77
2022/11/05 06:23:05;;;;;;;10.30;5.13;;;6.10;99.90;;;;;;4970865;28;20166;-77
2022/11/05 06:25:31;;;;;;;9.35;4.68;;;5.90;99.90;;;;;;4952413;28;20671;-76
2022/11/05 06:27:57;;;;;;;11.27;6.07;;;5.80;99.90;;;;;;4970908;28;20047;-76
2022/11/05 06:30:23;;;;;;;13.15;5.88;;;6.00;99.90;;;;;;4954057;28;20046;-75
2022/11/05 06:32:49;;;;;;;12.13;5.75;;;6.00;99.90;;;;;;4975384;28;20133;-76
2022/11/05 06:35:14;;;;;;;6.55;5.20;;;5.90;99.90;;;;;;4962440;28;20047;-76
2022/11/05 06:37:40;;;;;;;10.85;6.55;;;5.90;99.90;;;;;;4967779;28;20147;-76
2022/11/05 06:40:07;;;;;;;10.88;4.70;;;5.80;99.90;;;;;;4966156;28;20466;-76
2022/11/05 06:42:32;;;;;;;10.40;5.45;;;5.90;99.90;;;;;;4938972;28;20051;-77
2022/11/05 06:44:58;;;;;;;8.52;5.28;;;5.80;99.90;;;;;;4985215;28;20469;-77
2022/11/05 06:47:23;;;;;;;7.43;4.28;;;5.90;99.90;;;;;;4972423;28;20138;-75
2022/11/05 06:49:49;;;;;;;10.90;6.20;;;6.00;99.90;;;;;;4971561;28;20070;-76
2022/11/05 06:52:15;;;;;;;22.77;8.10;;;6.10;99.90;;;;;;4954377;28;20472;-76
2022/11/05 06:54:42;;;;;;;13.75;4.90;;;6.00;99.90;;;;;;4953523;28;20102;-76
2022/11/05 06:57:09;;;;;;;12.65;4.63;;;6.10;99.90;;;;;;4970958;28;20144;-76
2022/11/05 06:59:39;;;;;;;13.52;5.50;;;6.00;99.90;;;;;;4971890;28;20042;-75
2022/11/05 07:02:05;;;;;;;32.10;6.97;;;6.10;99.90;;;;;;4976080;28;20114;-75
2022/11/05 07:04:31;;;;;;;15.82;5.00;;;6.10;99.90;;;;;;4975773;28;20122;-76
2022/11/05 07:07:00;;;;;;;9.27;4.88;;;5.90;99.90;;;;;;4972259;28;20117;-78
2022/11/05 07:09:27;;;;;;;10.00;5.07;;;6.00;99.90;;;;;;4968921;28;20042;-75
2022/11/05 07:11:53;;;;;;;7.88;4.68;;;6.00;99.90;;;;;;4970895;28;20047;-74
2022/11/05 07:14:18;;;;;;;9.43;3.88;;;6.20;99.90;;;;;;4964156;28;20047;-77
2022/11/05 07:16:44;;;;;;;10.88;5.57;;;6.10;99.90;;;;;;4978316;28;20073;-75
2022/11/05 07:19:10;;;;;;;7.97;5.95;;;6.20;99.90;;;;;;4981387;28;20050;-76
2022/11/05 07:21:35;;;;;;;11.93;5.28;;;6.30;99.90;;;;;;4971364;28;20038;-73
2022/11/05 07:24:01;;;;;;;6.38;3.92;;;6.30;99.90;;;;;;4983255;28;20426;-74
2022/11/05 07:26:27;;;;;;;13.43;5.15;;;6.20;99.90;;;;;;4952944;28;20102;-75
2022/11/05 07:28:54;;;;;;;6.72;5.05;;;6.30;99.90;;;;;;4970781;28;20532;-74
2022/11/05 07:31:19;;;;;;;10.65;5.80;;;6.40;99.90;;;;;;4985755;28;20061;-75
2022/11/05 07:33:45;;;;;;;10.63;5.35;;;6.50;99.90;;;;;;4952405;28;20038;-74
2022/11/05 07:36:10;;;;;;;6.32;4.90;;;6.50;99.90;;;;;;4960468;28;20038;-76
2022/11/05 07:38:36;;;;;;;16.63;6.65;;;6.50;99.90;;;;;;4951464;28;20058;-75
2022/11/05 07:41:02;;;;;;;10.07;5.45;;;6.60;99.90;;;;;;4982186;28;20062;-75
2022/11/05 07:43:27;;;;;;;12.45;4.85;;;6.60;99.90;;;;;;4975451;28;20047;-73
2022/11/05 07:45:53;;;;;;;5.93;4.53;;;6.70;99.90;;;;;;4951298;28;20051;-74
2022/11/05 07:48:19;;;;;;;13.35;5.47;;;6.70;99.90;;;;;;4971401;28;20043;-74
2022/11/05 07:50:44;;;;;;;8.35;4.88;;;6.90;99.90;;;;;;4968837;28;20097;-75
2022/11/05 07:53:12;;;;;;;9.85;5.63;;;7.00;99.90;;;;;;4984299;28;20477;-76
2022/11/05 07:55:40;;;;;;;13.13;5.72;;;7.10;99.90;;;;;;4934433;29;20094;-76
2022/11/05 07:58:05;;;;;;;8.70;5.40;;;7.00;99.90;;;;;;4952410;28;20089;-77
2022/11/05 08:00:32;;;;;;;8.27;4.68;;;7.10;99.90;;;;;;4954497;28;20078;-77
2022/11/05 08:03:04;;;;;;;15.57;5.45;;;7.20;99.90;;;;;;4971719;28;20039;-75
2022/11/05 08:05:33;;;;;;;6.43;4.97;;;7.30;99.90;;;;;;4972903;28;20043;-75
2022/11/05 08:07:59;;;;;;;11.45;4.95;;;7.20;99.90;;;;;;4970224;28;20109;-76
2022/11/05 08:10:26;;;;;;;7.07;4.85;;;7.50;99.90;;;;;;4967591;28;20055;-74
2022/11/05 08:12:52;;;;;;;8.68;4.85;;;7.40;99.90;;;;;;4969377;28;20113;-75
2022/11/05 08:15:18;;;;;;;15.95;5.90;;;7.50;99.90;;;;;;4963950;28;20097;-75
2022/11/05 08:17:44;;;;;;;9.30;4.55;;;7.70;99.90;;;;;;4970585;28;20046;-75
2022/11/05 08:20:10;;;;;;;5.60;4.20;;;7.50;99.90;;;;;;4968877;28;20046;-75
2022/11/05 08:22:36;;;;;;;5.07;3.63;;;7.80;99.90;;;;;;4968650;28;20556;-75
2022/11/05 08:25:02;;;;;;;8.90;3.85;;;7.80;99.90;;;;;;4972474;28;20035;-74
2022/11/05 08:27:27;;;;;;;6.93;3.80;;;7.80;99.90;;;;;;4981563;28;20769;-74
2022/11/05 08:29:53;;;;;;;13.02;5.30;;;7.80;99.90;;;;;;4980316;28;20051;-76
2022/11/05 08:32:19;;;;;;;6.10;3.78;;;8.00;99.90;;;;;;4970749;28;20402;-76
2022/11/05 08:34:44;;;;;;;9.93;4.97;;;8.00;99.90;;;;;;4968621;28;20047;-74
2022/11/05 08:37:10;;;;;;;8.38;4.13;;;8.00;99.90;;;;;;4951942;28;20075;-75
2022/11/05 08:39:36;;;;;;;7.93;3.83;;;8.20;99.90;;;;;;4968563;28;20456;-77
2022/11/05 08:42:02;;;;;;;10.73;4.45;;;8.10;99.90;;;;;;4969586;28;20122;-76
2022/11/05 08:44:28;;;;;;;9.10;4.68;;;8.30;99.90;;;;;;4969309;28;20047;-74
2022/11/05 08:46:54;;;;;;;11.65;4.57;;;8.40;99.90;;;;;;4951952;28;20394;-76
2022/11/05 08:49:20;;;;;;;6.40;3.85;;;8.50;99.90;;;;;;4970678;28;20054;-75
2022/11/05 08:51:45;;;;;;;11.85;4.28;;;8.60;99.90;;;;;;4969606;28;20054;-75
2022/11/05 08:54:12;;;;;;;7.65;3.45;;;8.80;99.90;;;;;;4983111;28;20060;-76
2022/11/05 08:56:38;;;;;;;8.32;3.00;;;9.00;99.90;;;;;;4985016;28;20043;-75
2022/11/05 08:59:04;;;;;;;8.73;3.03;;;8.90;99.90;;;;;;4950736;28;20041;-75
2022/11/05 09:01:29;;;;;;;5.20;3.05;;;9.00;99.90;;;;;;4971055;28;20047;-77
2022/11/05 09:03:55;;;;;;;6.68;2.63;;;9.10;99.90;;;;;;4970255;28;20053;-76
2022/11/05 09:06:21;;;;;;;6.22;2.97;;;9.00;99.90;;;;;;4970182;28;20046;-76
2022/11/05 09:08:46;;;;;;;6.45;2.97;;;9.20;99.90;;;;;;4969557;28;20110;-73
2022/11/05 09:11:12;;;;;;;5.50;2.63;;;9.20;99.90;;;;;;4970031;28;20031;-75
2022/11/05 09:13:37;;;;;;;5.70;2.53;;;9.20;99.90;;;;;;4973057;28;20078;-74
2022/11/05 09:16:04;;;;;;;4.95;2.95;;;9.10;99.90;;;;;;4966512;28;20047;-72
2022/11/05 09:18:29;;;;;;;5.38;2.72;;;9.10;99.90;;;;;;4969672;28;20496;-73
2022/11/05 09:20:55;;;;;;;5.20;2.50;;;9.20;99.90;;;;;;4983697;28;20522;-72
2022/11/05 09:23:21;;;;;;;9.23;3.45;;;9.20;99.90;;;;;;4959241;28;20130;-73
2022/11/05 09:25:47;;;;;;;5.25;2.67;;;9.20;99.90;;;;;;4954389;28;20047;-73
2022/11/05 09:28:17;;;;;;;9.18;3.90;;;9.20;99.90;;;;;;4960230;28;20041;-75
2022/11/05 09:30:46;;;;;;;12.50;2.78;;;9.30;99.90;;;;;;4980374;28;20034;-73
2022/11/05 09:33:12;;;;;;;4.88;2.55;;;9.30;99.90;;;;;;4968564;28;20089;-73
2022/11/05 09:35:39;;;;;;;6.57;2.60;;;9.50;99.90;;;;;;4984192;28;20065;-76
2022/11/05 09:38:06;;;;;;;3.90;2.53;;;9.60;99.90;;;;;;4965217;28;20043;-72
2022/11/05 09:40:37;;;;;;;5.85;2.70;;;9.70;99.90;;;;;;4976524;28;20392;-73
2022/11/05 09:43:04;;;;;;;4.35;1.92;;;9.80;99.90;;;;;;4972835;28;20077;-74
2022/11/05 09:45:34;;;;;;;4.25;3.63;;;10.00;99.90;;;;;;4970032;28;20043;-74
2022/11/05 09:48:13;;;;;;;5.97;3.00;;;10.00;99.90;;;;;;4968023;28;20039;-74
2022/11/05 09:50:42;;;;;;;6.25;2.25;;;10.10;99.90;;;;;;4972913;28;20313;-73
2022/11/05 09:53:13;;;;;;;5.45;2.05;;;10.20;99.90;;;;;;4950406;28;20062;-73
2022/11/05 09:55:46;;;;;;;5.65;2.45;;;10.30;99.90;;;;;;4949672;28;20039;-74
2022/11/05 09:58:24;;;;;;;8.77;2.67;;;10.30;99.90;;;;;;4967328;28;20105;-75
2022/11/05 10:00:51;;;;;;;2.92;2.03;;;10.40;99.90;;;;;;4969281;28;20038;-74
2022/11/05 10:03:25;;;;;;;5.13;1.90;;;10.50;99.90;;;;;;4964538;28;20065;-74
2022/11/05 10:05:53;;;;;;;7.63;1.63;;;10.60;99.90;;;;;;4954961;28;20058;-73
2022/11/05 10:08:28;;;;;;;3.75;2.08;;;10.60;99.90;;;;;;4949203;28;20120;-74
2022/11/05 10:11:12;;;;;;;27.60;2.97;;;10.70;99.90;;;;;;4946908;28;20482;-73
2022/11/05 10:14:18;;;;;;;4.85;1.55;;;10.80;99.90;;;;;;4949607;28;20094;-74
2022/11/05 10:16:50;;;;;;;5.57;1.85;;;10.90;99.90;;;;;;4948162;28;20784;-74
2022/11/05 10:19:23;;;;;;;2.83;1.65;;;10.80;99.90;;;;;;4959516;28;20050;-77
2022/11/05 10:22:15;;;;;;;5.88;2.22;;;11.00;99.90;;;;;;4958158;28;20054;-76
2022/11/05 10:24:48;;;;;;;2.40;1.63;;;11.10;99.90;;;;;;4950597;28;20073;-73
2022/11/05 10:27:24;;;;;;;7.97;1.80;;;11.10;99.90;;;;;;4937828;28;20050;-74
2022/11/05 10:29:50;;;;;;;5.93;2.72;;;11.10;99.90;;;;;;4965715;28;20129;-75
2022/11/05 10:32:38;;;;;;;4.20;1.50;;;11.10;99.90;;;;;;4966742;28;20042;-75
2022/11/05 10:35:06;;;;;;;2.97;1.83;;;11.10;99.90;;;;;;4942710;28;20057;-74
2022/11/05 10:37:33;;;;;;;10.68;2.50;;;11.00;99.90;;;;;;4987647;28;20692;-75
2022/11/05 10:39:59;;;;;;;7.43;2.22;;;11.00;99.90;;;;;;4972999;28;20049;-76
2022/11/05 10:42:33;;;;;;;5.20;1.33;;;11.00;99.90;;;;;;4972217;28;20038;-75
2022/11/05 10:45:18;;;;;;;6.90;2.00;;;11.00;99.90;;;;;;4972565;28;20058;-74
2022/11/05 10:47:55;;;;;;;4.13;1.67;;;11.00;99.90;;;;;;4937772;28;20042;-75
2022/11/05 10:50:25;;;;;;;4.18;1.50;;;11.00;99.90;;;;;;4970928;28;20062;-73
2022/11/05 10:52:50;;;;;;;4.47;2.13;;;11.10;99.90;;;;;;4970498;28;20074;-75
2022/11/05 10:55:20;;;;;;;4.68;1.70;;;11.10;99.90;;;;;;4977104;28;20493;-75
2022/11/05 10:57:48;;;;;;;4.63;1.60;;;11.10;99.90;;;;;;4971762;28;20482;-75
2022/11/05 11:00:13;;;;;;;6.78;2.22;;;11.00;99.90;;;;;;4973609;28;20119;-73
2022/11/05 11:02:41;;;;;;;4.72;2.30;;;11.00;99.90;;;;;;4952817;28;20170;-75
2022/11/05 11:05:09;;;;;;;4.85;1.75;;;11.00;99.90;;;;;;4968938;28;20111;-77
2022/11/05 11:07:35;;;;;;;7.18;1.60;;;11.10;99.90;;;;;;4974509;28;20047;-77
2022/11/05 11:10:02;;;;;;;2.72;1.38;;;11.30;99.90;;;;;;4957863;28;20050;-75
2022/11/05 11:12:37;;;;;;;7.88;1.60;;;11.40;99.90;;;;;;4962865;28;20059;-77
2022/11/05 11:15:28;;;;;;;7.18;2.50;;;11.60;99.90;;;;;;4963271;28;20550;-74
2022/11/05 11:17:55;;;;;;;7.90;2.17;;;11.60;99.90;;;;;;4984957;28;20101;-78
2022/11/05 11:20:31;;;;;;;3.45;2.13;;;11.60;99.90;;;;;;4978988;28;20046;-75
2022/11/05 11:23:14;;;;;;;7.43;1.45;;;11.60;99.90;;;;;;4970633;28;20081;-75
2022/11/05 11:25:50;;;;;;;3.38;1.95;;;11.60;99.90;;;;;;4962356;28;20046;-75
2022/11/05 11:28:23;;;;;;;10.48;2.35;;;11.60;99.90;;;;;;4973700;28;20053;-76
2022/11/05 11:31:02;;;;;;;2.95;1.40;;;11.50;99.90;;;;;;4991114;28;20089;-75
2022/11/05 11:33:29;;;;;;;4.95;2.63;;;11.60;99.90;;;;;;4971220;28;20101;-75
2022/11/05 11:35:55;;;;;;;6.72;2.33;;;11.80;99.90;;;;;;4969749;28;20054;-76
2022/11/05 11:38:22;;;;;;;2.42;1.23;;;11.80;99.90;;;;;;4952431;28;20051;-76
2022/11/05 11:40:48;;;;;;;2.83;1.17;;;11.70;99.90;;;;;;4976966;28;20038;-76
2022/11/05 11:43:26;;;;;;;6.88;1.90;;;11.60;99.90;;;;;;4990425;28;20073;-75
2022/11/05 11:45:54;;;;;;;4.68;1.33;;;11.20;99.90;;;;;;4984489;28;20119;-76
2022/11/05 11:48:30;;;;;;;3.25;1.00;;;11.00;99.90;;;;;;4953194;28;20047;-75
2022/11/05 11:50:57;;;;;;;3.78;1.05;;;10.80;99.90;;;;;;4953313;28;20153;-76
2022/11/05 11:53:29;;;;;;;1.52;0.40;;;10.60;99.90;;;;;;4984307;28;20127;-75
2022/11/05 11:56:00;;;;;;;2.60;0.88;;;10.50;99.90;;;;;;4984495;28;20049;-76
2022/11/05 11:58:40;;;;;;;1.70;0.63;;;10.40;99.90;;;;;;4971576;28;20085;-75
2022/11/05 12:01:27;;;;;;;3.05;0.50;;;10.40;99.90;;;;;;4953516;28;20046;-75
2022/11/05 12:04:13;;;;;;;6.35;1.58;;;10.40;99.90;;;;;;4956921;28;20075;-73
2022/11/05 12:07:09;;;;;;;2.67;1.00;;;10.40;99.90;;;;;;4932626;28;20518;-74
2022/11/05 12:10:11;;;;;;;0.77;0.40;;;10.40;99.90;;;;;;4965813;28;20054;-74
2022/11/05 12:13:03;;;;;;;5.43;1.13;;;10.40;99.90;;;;;;4960446;28;20069;-76
2022/11/05 12:15:44;;;;;;;3.67;1.00;;;10.50;99.90;;;;;;4965997;28;20130;-76
2022/11/05 12:18:36;;;;;;;6.47;0.73;;;10.50;99.90;;;;;;4953467;28;20185;-74
2022/11/05 12:21:32;;;;;;;3.15;0.85;;;10.50;99.90;;;;;;4952508;28;20043;-75
2022/11/05 12:24:21;;;;;;;2.15;0.77;;;10.50;99.90;;;;;;4970725;28;20057;-73
2022/11/05 12:26:59;;;;;;;4.18;0.82;;;10.50;99.90;;;;;;4969719;28;20053;-76
2022/11/05 12:30:03;;;;;;;3.53;0.95;;;10.40;99.90;;;;;;4952518;28;20039;-74
2022/11/05 12:32:44;;;;;;;6.35;1.63;;;10.30;99.90;;;;;;4968335;28;20085;-73
2022/11/05 12:35:28;;;;;;;4.00;1.17;;;10.20;99.90;;;;;;4979383;28;20445;-75
2022/11/05 12:38:26;;;;;;;6.88;2.35;;;10.20;99.90;;;;;;4987456;28;20389;-76
2022/11/05 12:41:13;;;;;;;5.55;1.15;;;10.10;99.90;;;;;;4961117;28;20057;-76
2022/11/05 12:43:41;;;;;;;2.92;1.05;;;10.10;99.90;;;;;;4950617;28;20386;-75
2022/11/05 12:46:30;;;;;;;6.97;1.88;;;10.10;99.90;;;;;;4944687;28;20444;-75
2022/11/05 12:49:33;;;;;;;5.63;1.02;;;10.30;99.90;;;;;;4938891;28;20418;-75
2022/11/05 12:52:09;;;;;;;7.25;2.05;;;10.40;99.90;;;;;;4964373;28;20074;-74
2022/11/05 12:54:44;;;;;;;7.32;2.20;;;10.50;99.90;;;;;;4964413;28;20090;-75
2022/11/05 12:57:12;;;;;;;4.50;1.52;;;10.60;99.90;;;;;;4968393;28;20489;-76
2022/11/05 12:59:46;;;;;;;5.32;1.27;;;10.70;99.90;;;;;;4954208;28;20046;-76
2022/11/05 13:02:43;;;;;;;4.25;1.67;;;10.70;99.90;;;;;;4969805;28;20110;-76
2022/11/05 13:05:38;;;;;;;3.45;1.23;;;10.80;99.90;;;;;;4969165;28;20055;-75
2022/11/05 13:08:28;;;;;;;4.22;0.85;;;10.90;99.90;;;;;;4979757;28;20113;-72
2022/11/05 13:11:13;;;;;;;6.60;1.80;;;10.90;99.90;;;;;;4960102;28;20057;-74
2022/11/05 13:13:50;;;;;;;5.93;2.25;;;10.90;99.90;;;;;;4972347;28;20058;-75
2022/11/05 13:16:37;;;;;;;7.47;2.10;;;10.90;99.90;;;;;;4965687;28;20050;-73
2022/11/05 13:19:23;;;;;;;8.10;2.08;;;10.90;99.90;;;;;;4931772;28;20420;-75
2022/11/05 13:21:56;;;;;;;6.93;2.30;;;10.90;99.90;;;;;;4983058;28;20051;-74
2022/11/05 13:24:27;;;;;;;16.10;3.95;;;11.00;99.90;;;;;;4952571;28;20105;-75
2022/11/05 13:27:11;;;;;;;4.85;2.20;;;10.90;99.90;;;;;;4969933;28;20042;-75
2022/11/05 13:29:47;;;;;;;8.70;2.40;;;11.00;99.90;;;;;;4965485;28;20042;-75
2022/11/05 13:32:33;;;;;;;9.32;2.47;;;11.00;99.90;;;;;;4983540;28;20043;-75
2022/11/05 13:35:02;;;;;;;9.18;3.40;;;11.10;99.90;;;;;;4963512;28;20400;-72
2022/11/05 13:40:38;;;;;;;7.35;3.22;;;11.20;99.90;;;;;;4965913;28;20055;-72
2022/11/05 13:43:36;;;;;;;8.27;3.67;;;11.10;99.90;;;;;;4970449;28;20114;-73
2022/11/05 13:46:26;;;;;;;7.25;2.30;;;11.20;99.90;;;;;;4969012;28;20409;-72
2022/11/05 13:48:54;;;;;;;4.30;2.43;;;11.10;99.90;;;;;;4968569;28;20046;-73
2022/11/05 13:51:45;;;;;;;6.28;2.80;;;11.10;99.90;;;;;;4970653;28;20089;-72
2022/11/05 13:54:47;;;;;;;13.77;3.92;;;11.00;99.90;;;;;;4944720;28;20039;-77